sensor_id;sensor_type;location;lat;lon;timestamp;P1;durP1;ratioP1;P2;durP2;ratioP2
20159;SDS011;50187;50.492;12.134;2023-08-06T00:00:30;1.40;;;1.33;;
20159;SDS011;50187;50.492;12.134;2023-08-06T00:02:57;1.50;;;1.40;;
20159;SDS011;50187;50.492;12.134;2023-08-06T00:05:24;1.50;;;1.40;;
20159;SDS011;50187;50.492;12.134;2023-08-06T00:07:50;1.60;;;1.50;;
20159;SDS011;50187;50.492;12.134;2023-08-06T00:10:17;1.37;;;1.37;;
20159;SDS011;50187;50.492;12.134;2023-08-06T00:12:44;1.40;;;1.30;;
20159;SDS011;50187;50.492;12.134;2023-08-06T00:15:11;1.60;;;1.50;;
20159;SDS011;50187;50.492;12.134;2023-08-06T00:17:38;1.60;;;1.60;;
20159;SDS011;50187;50.492;12.134;2023-08-06T00:20:05;1.47;;;1.47;;
20159;SDS011;50187;50.492;12.134;2023-08-06T00:22:33;1.53;;;1.43;;
20159;SDS011;50187;50.492;12.134;2023-08-06T00:25:00;1.33;;;1.30;;
20159;SDS011;50187;50.492;12.134;2023-08-06T00:27:27;1.60;;;1.50;;
20159;SDS011;50187;50.492;12.134;2023-08-06T00:29:53;1.60;;;1.50;;
20159;SDS011;50187;50.492;12.134;2023-08-06T00:32:21;1.60;;;1.50;;
20159;SDS011;50187;50.492;12.134;2023-08-06T00:34:48;1.27;;;1.27;;
20159;SDS011;50187;50.492;12.134;2023-08-06T00:37:18;1.60;;;1.50;;
20159;SDS011;50187;50.492;12.134;2023-08-06T00:39:45;1.50;;;1.50;;
20159;SDS011;50187;50.492;12.134;2023-08-06T00:42:12;1.30;;;1.30;;
20159;SDS011;50187;50.492;12.134;2023-08-06T00:44:38;1.53;;;1.43;;
20159;SDS011;50187;50.492;12.134;2023-08-06T00:47:07;1.60;;;1.50;;
20159;SDS011;50187;50.492;12.134;2023-08-06T00:49:35;1.40;;;1.30;;
20159;SDS011;50187;50.492;12.134;2023-08-06T00:52:05;2.70;;;1.70;;
20159;SDS011;50187;50.492;12.134;2023-08-06T00:54:36;1.50;;;1.50;;
20159;SDS011;50187;50.492;12.134;2023-08-06T00:57:03;1.50;;;1.40;;
20159;SDS011;50187;50.492;12.134;2023-08-06T00:59:33;1.70;;;1.60;;
20159;SDS011;50187;50.492;12.134;2023-08-06T01:02:01;1.70;;;1.60;;
20159;SDS011;50187;50.492;12.134;2023-08-06T01:04:28;1.60;;;1.50;;
20159;SDS011;50187;50.492;12.134;2023-08-06T01:07:01;2.00;;;1.90;;
20159;SDS011;50187;50.492;12.134;2023-08-06T01:09:38;1.80;;;1.70;;
20159;SDS011;50187;50.492;12.134;2023-08-06T01:12:09;2.00;;;1.90;;
20159;SDS011;50187;50.492;12.134;2023-08-06T01:15:23;2.13;;;1.93;;
20159;SDS011;50187;50.492;12.134;2023-08-06T01:17:33;1.80;;;1.70;;
20159;SDS011;50187;50.492;12.134;2023-08-06T01:20:01;1.93;;;1.83;;
20159;SDS011;50187;50.492;12.134;2023-08-06T01:22:28;1.90;;;1.80;;
20159;SDS011;50187;50.492;12.134;2023-08-06T01:24:54;1.40;;;1.40;;
20159;SDS011;50187;50.492;12.134;2023-08-06T01:30:16;1.80;;;1.70;;
20159;SDS011;50187;50.492;12.134;2023-08-06T01:32:46;1.30;;;1.30;;
20159;SDS011;50187;50.492;12.134;2023-08-06T01:35:17;1.70;;;1.60;;
20159;SDS011;50187;50.492;12.134;2023-08-06T01:37:45;1.47;;;1.47;;
20159;SDS011;50187;50.492;12.134;2023-08-06T01:40:13;1.53;;;1.50;;
20159;SDS011;50187;50.492;12.134;2023-08-06T01:42:40;1.63;;;1.53;;
20159;SDS011;50187;50.492;12.134;2023-08-06T01:45:07;1.77;;;1.67;;
20159;SDS011;50187;50.492;12.134;2023-08-06T01:47:35;1.73;;;1.60;;
20159;SDS011;50187;50.492;12.134;2023-08-06T01:50:02;1.80;;;1.70;;
20159;SDS011;50187;50.492;12.134;2023-08-06T01:52:29;1.90;;;1.80;;
20159;SDS011;50187;50.492;12.134;2023-08-06T01:54:56;1.90;;;1.80;;
20159;SDS011;50187;50.492;12.134;2023-08-06T01:57:22;1.87;;;1.77;;
20159;SDS011;50187;50.492;12.134;2023-08-06T01:59:49;1.80;;;1.70;;
20159;SDS011;50187;50.492;12.134;2023-08-06T02:02:16;2.13;;;2.03;;
20159;SDS011;50187;50.492;12.134;2023-08-06T02:04:43;1.67;;;1.57;;
20159;SDS011;50187;50.492;12.134;2023-08-06T02:07:11;1.60;;;1.60;;
20159;SDS011;50187;50.492;12.134;2023-08-06T02:09:38;1.77;;;1.67;;
20159;SDS011;50187;50.492;12.134;2023-08-06T02:12:04;1.50;;;1.40;;
20159;SDS011;50187;50.492;12.134;2023-08-06T02:14:31;1.40;;;1.40;;
20159;SDS011;50187;50.492;12.134;2023-08-06T02:16:58;1.83;;;1.73;;
20159;SDS011;50187;50.492;12.134;2023-08-06T02:19:25;1.70;;;1.60;;
20159;SDS011;50187;50.492;12.134;2023-08-06T02:21:51;1.40;;;1.40;;
20159;SDS011;50187;50.492;12.134;2023-08-06T02:24:18;1.30;;;1.30;;
20159;SDS011;50187;50.492;12.134;2023-08-06T02:26:45;1.37;;;1.33;;
20159;SDS011;50187;50.492;12.134;2023-08-06T02:29:13;1.53;;;1.47;;
20159;SDS011;50187;50.492;12.134;2023-08-06T02:31:42;1.80;;;1.70;;
20159;SDS011;50187;50.492;12.134;2023-08-06T02:34:09;1.60;;;1.50;;
20159;SDS011;50187;50.492;12.134;2023-08-06T02:36:35;1.43;;;1.43;;
20159;SDS011;50187;50.492;12.134;2023-08-06T02:39:02;1.80;;;1.70;;
20159;SDS011;50187;50.492;12.134;2023-08-06T02:41:29;1.70;;;1.60;;
20159;SDS011;50187;50.492;12.134;2023-08-06T02:43:56;1.90;;;1.80;;
20159;SDS011;50187;50.492;12.134;2023-08-06T02:46:23;1.90;;;1.80;;
20159;SDS011;50187;50.492;12.134;2023-08-06T02:48:50;1.60;;;1.50;;
20159;SDS011;50187;50.492;12.134;2023-08-06T02:51:16;1.87;;;1.77;;
20159;SDS011;50187;50.492;12.134;2023-08-06T02:53:43;1.73;;;1.63;;
20159;SDS011;50187;50.492;12.134;2023-08-06T02:56:12;1.60;;;1.50;;
20159;SDS011;50187;50.492;12.134;2023-08-06T02:58:59;1.50;;;1.50;;
20159;SDS011;50187;50.492;12.134;2023-08-06T03:01:38;1.97;;;1.87;;
20159;SDS011;50187;50.492;12.134;2023-08-06T03:04:13;1.73;;;1.63;;
20159;SDS011;50187;50.492;12.134;2023-08-06T03:06:45;1.90;;;1.80;;
20159;SDS011;50187;50.492;12.134;2023-08-06T03:09:12;1.80;;;1.70;;
20159;SDS011;50187;50.492;12.134;2023-08-06T03:11:39;1.70;;;1.60;;
20159;SDS011;50187;50.492;12.134;2023-08-06T03:14:10;1.70;;;1.60;;
20159;SDS011;50187;50.492;12.134;2023-08-06T03:16:38;1.40;;;1.40;;
20159;SDS011;50187;50.492;12.134;2023-08-06T03:19:04;1.73;;;1.63;;
20159;SDS011;50187;50.492;12.134;2023-08-06T03:21:31;1.80;;;1.70;;
20159;SDS011;50187;50.492;12.134;2023-08-06T03:23:58;1.70;;;1.60;;
20159;SDS011;50187;50.492;12.134;2023-08-06T03:26:28;1.70;;;1.60;;
20159;SDS011;50187;50.492;12.134;2023-08-06T03:28:55;1.90;;;1.80;;
20159;SDS011;50187;50.492;12.134;2023-08-06T03:31:22;1.60;;;1.50;;
20159;SDS011;50187;50.492;12.134;2023-08-06T03:33:48;1.63;;;1.53;;
20159;SDS011;50187;50.492;12.134;2023-08-06T03:36:21;1.63;;;1.53;;
20159;SDS011;50187;50.492;12.134;2023-08-06T03:38:50;1.80;;;1.70;;
20159;SDS011;50187;50.492;12.134;2023-08-06T03:41:17;1.90;;;1.80;;
20159;SDS011;50187;50.492;12.134;2023-08-06T03:43:44;1.50;;;1.43;;
20159;SDS011;50187;50.492;12.134;2023-08-06T03:46:17;1.50;;;1.50;;
20159;SDS011;50187;50.492;12.134;2023-08-06T03:48:44;1.40;;;1.40;;
20159;SDS011;50187;50.492;12.134;2023-08-06T03:51:11;1.70;;;1.60;;
20159;SDS011;50187;50.492;12.134;2023-08-06T03:53:39;1.97;;;1.87;;
20159;SDS011;50187;50.492;12.134;2023-08-06T03:56:06;1.53;;;1.53;;
20159;SDS011;50187;50.492;12.134;2023-08-06T03:58:33;2.00;;;1.90;;
20159;SDS011;50187;50.492;12.134;2023-08-06T04:01:00;1.80;;;1.70;;
20159;SDS011;50187;50.492;12.134;2023-08-06T04:03:48;1.80;;;1.70;;
20159;SDS011;50187;50.492;12.134;2023-08-06T04:06:15;1.80;;;1.70;;
20159;SDS011;50187;50.492;12.134;2023-08-06T04:08:42;1.70;;;1.60;;
20159;SDS011;50187;50.492;12.134;2023-08-06T04:11:08;1.63;;;1.53;;
20159;SDS011;50187;50.492;12.134;2023-08-06T04:13:35;1.60;;;1.50;;
20159;SDS011;50187;50.492;12.134;2023-08-06T04:16:02;1.40;;;1.37;;
20159;SDS011;50187;50.492;12.134;2023-08-06T04:18:30;1.73;;;1.63;;
20159;SDS011;50187;50.492;12.134;2023-08-06T04:20:57;1.70;;;1.60;;
20159;SDS011;50187;50.492;12.134;2023-08-06T04:23:24;1.73;;;1.63;;
20159;SDS011;50187;50.492;12.134;2023-08-06T04:25:57;1.70;;;1.60;;
20159;SDS011;50187;50.492;12.134;2023-08-06T04:28:28;1.50;;;1.50;;
20159;SDS011;50187;50.492;12.134;2023-08-06T04:30:55;1.60;;;1.50;;
20159;SDS011;50187;50.492;12.134;2023-08-06T04:33:21;1.60;;;1.50;;
20159;SDS011;50187;50.492;12.134;2023-08-06T04:35:53;1.60;;;1.50;;
20159;SDS011;50187;50.492;12.134;2023-08-06T04:38:23;1.47;;;1.43;;
20159;SDS011;50187;50.492;12.134;2023-08-06T04:40:51;1.67;;;1.57;;
20159;SDS011;50187;50.492;12.134;2023-08-06T04:43:20;1.30;;;1.30;;
20159;SDS011;50187;50.492;12.134;2023-08-06T04:45:50;1.73;;;1.63;;
20159;SDS011;50187;50.492;12.134;2023-08-06T04:48:19;1.40;;;1.40;;
20159;SDS011;50187;50.492;12.134;2023-08-06T04:50:46;1.60;;;1.50;;
20159;SDS011;50187;50.492;12.134;2023-08-06T04:53:13;1.40;;;1.40;;
20159;SDS011;50187;50.492;12.134;2023-08-06T04:55:40;1.37;;;1.37;;
20159;SDS011;50187;50.492;12.134;2023-08-06T04:58:09;1.50;;;1.40;;
20159;SDS011;50187;50.492;12.134;2023-08-06T05:00:36;1.47;;;1.47;;
20159;SDS011;50187;50.492;12.134;2023-08-06T05:03:03;1.53;;;1.50;;
20159;SDS011;50187;50.492;12.134;2023-08-06T05:05:30;1.17;;;1.17;;
20159;SDS011;50187;50.492;12.134;2023-08-06T05:07:56;2.53;;;1.70;;
20159;SDS011;50187;50.492;12.134;2023-08-06T05:10:26;1.30;;;1.30;;
20159;SDS011;50187;50.492;12.134;2023-08-06T05:12:53;1.57;;;1.47;;
20159;SDS011;50187;50.492;12.134;2023-08-06T05:15:20;1.70;;;1.60;;
20159;SDS011;50187;50.492;12.134;2023-08-06T05:17:47;1.57;;;1.47;;
20159;SDS011;50187;50.492;12.134;2023-08-06T05:20:13;1.63;;;1.53;;
20159;SDS011;50187;50.492;12.134;2023-08-06T05:22:40;1.40;;;1.40;;
20159;SDS011;50187;50.492;12.134;2023-08-06T05:25:07;1.20;;;1.20;;
20159;SDS011;50187;50.492;12.134;2023-08-06T05:27:34;1.37;;;1.37;;
20159;SDS011;50187;50.492;12.134;2023-08-06T05:30:01;1.20;;;1.20;;
20159;SDS011;50187;50.492;12.134;2023-08-06T05:32:27;1.30;;;1.30;;
20159;SDS011;50187;50.492;12.134;2023-08-06T05:34:54;1.10;;;1.10;;
20159;SDS011;50187;50.492;12.134;2023-08-06T05:37:21;1.30;;;1.30;;
20159;SDS011;50187;50.492;12.134;2023-08-06T05:39:47;1.30;;;1.30;;
20159;SDS011;50187;50.492;12.134;2023-08-06T05:42:14;1.30;;;1.30;;
20159;SDS011;50187;50.492;12.134;2023-08-06T05:44:40;1.47;;;1.37;;
20159;SDS011;50187;50.492;12.134;2023-08-06T05:47:07;1.50;;;1.40;;
20159;SDS011;50187;50.492;12.134;2023-08-06T05:49:34;1.40;;;1.40;;
20159;SDS011;50187;50.492;12.134;2023-08-06T05:52:00;1.13;;;1.13;;
20159;SDS011;50187;50.492;12.134;2023-08-06T05:54:27;1.30;;;1.30;;
20159;SDS011;50187;50.492;12.134;2023-08-06T05:56:53;1.40;;;1.40;;
20159;SDS011;50187;50.492;12.134;2023-08-06T05:59:20;1.77;;;1.67;;
20159;SDS011;50187;50.492;12.134;2023-08-06T06:01:47;1.20;;;1.20;;
20159;SDS011;50187;50.492;12.134;2023-08-06T06:04:13;1.50;;;1.40;;
20159;SDS011;50187;50.492;12.134;2023-08-06T06:06:40;1.30;;;1.30;;
20159;SDS011;50187;50.492;12.134;2023-08-06T06:09:08;1.13;;;1.13;;
20159;SDS011;50187;50.492;12.134;2023-08-06T06:11:34;1.60;;;1.50;;
20159;SDS011;50187;50.492;12.134;2023-08-06T06:14:01;1.30;;;1.30;;
20159;SDS011;50187;50.492;12.134;2023-08-06T06:16:27;1.50;;;1.40;;
20159;SDS011;50187;50.492;12.134;2023-08-06T06:18:54;1.10;;;1.10;;
20159;SDS011;50187;50.492;12.134;2023-08-06T06:21:21;1.40;;;1.40;;
20159;SDS011;50187;50.492;12.134;2023-08-06T06:23:47;1.50;;;1.40;;
20159;SDS011;50187;50.492;12.134;2023-08-06T06:26:14;1.47;;;1.47;;
20159;SDS011;50187;50.492;12.134;2023-08-06T06:28:40;1.20;;;1.20;;
20159;SDS011;50187;50.492;12.134;2023-08-06T06:31:07;1.20;;;1.20;;
20159;SDS011;50187;50.492;12.134;2023-08-06T06:33:34;1.30;;;1.30;;
20159;SDS011;50187;50.492;12.134;2023-08-06T06:36:00;1.37;;;1.37;;
20159;SDS011;50187;50.492;12.134;2023-08-06T06:38:29;1.13;;;1.13;;
20159;SDS011;50187;50.492;12.134;2023-08-06T06:40:56;1.30;;;1.30;;
20159;SDS011;50187;50.492;12.134;2023-08-06T06:43:23;1.10;;;1.10;;
20159;SDS011;50187;50.492;12.134;2023-08-06T06:45:53;1.20;;;1.20;;
20159;SDS011;50187;50.492;12.134;2023-08-06T06:48:23;1.10;;;1.10;;
20159;SDS011;50187;50.492;12.134;2023-08-06T06:50:49;1.20;;;1.20;;
20159;SDS011;50187;50.492;12.134;2023-08-06T06:53:16;1.17;;;1.17;;
20159;SDS011;50187;50.492;12.134;2023-08-06T06:55:42;1.50;;;1.40;;
20159;SDS011;50187;50.492;12.134;2023-08-06T06:58:09;1.20;;;1.17;;
20159;SDS011;50187;50.492;12.134;2023-08-06T07:00:36;1.30;;;1.30;;
20159;SDS011;50187;50.492;12.134;2023-08-06T07:03:03;1.53;;;1.43;;
20159;SDS011;50187;50.492;12.134;2023-08-06T07:05:30;1.53;;;1.43;;
20159;SDS011;50187;50.492;12.134;2023-08-06T07:07:56;0.97;;;0.97;;
20159;SDS011;50187;50.492;12.134;2023-08-06T07:10:23;1.03;;;1.03;;
20159;SDS011;50187;50.492;12.134;2023-08-06T07:12:50;1.20;;;1.20;;
20159;SDS011;50187;50.492;12.134;2023-08-06T07:15:16;1.47;;;1.47;;
20159;SDS011;50187;50.492;12.134;2023-08-06T07:17:44;1.10;;;1.10;;
20159;SDS011;50187;50.492;12.134;2023-08-06T07:20:10;1.30;;;1.30;;
20159;SDS011;50187;50.492;12.134;2023-08-06T07:22:37;1.20;;;1.20;;
20159;SDS011;50187;50.492;12.134;2023-08-06T07:25:04;1.07;;;1.07;;
20159;SDS011;50187;50.492;12.134;2023-08-06T07:27:31;1.40;;;1.40;;
20159;SDS011;50187;50.492;12.134;2023-08-06T07:29:58;1.10;;;1.10;;
20159;SDS011;50187;50.492;12.134;2023-08-06T07:32:25;1.07;;;1.07;;
20159;SDS011;50187;50.492;12.134;2023-08-06T07:34:52;1.40;;;1.40;;
20159;SDS011;50187;50.492;12.134;2023-08-06T07:37:23;1.20;;;1.20;;
20159;SDS011;50187;50.492;12.134;2023-08-06T07:39:49;1.63;;;1.53;;
20159;SDS011;50187;50.492;12.134;2023-08-06T07:42:16;1.07;;;1.07;;
20159;SDS011;50187;50.492;12.134;2023-08-06T07:45:05;1.00;;;1.00;;
20159;SDS011;50187;50.492;12.134;2023-08-06T07:47:32;1.10;;;1.10;;
20159;SDS011;50187;50.492;12.134;2023-08-06T07:49:58;1.07;;;1.07;;
20159;SDS011;50187;50.492;12.134;2023-08-06T07:52:25;1.30;;;1.30;;
20159;SDS011;50187;50.492;12.134;2023-08-06T07:54:52;1.23;;;1.23;;
20159;SDS011;50187;50.492;12.134;2023-08-06T07:57:19;1.07;;;1.07;;
20159;SDS011;50187;50.492;12.134;2023-08-06T07:59:45;1.50;;;1.40;;
20159;SDS011;50187;50.492;12.134;2023-08-06T08:02:12;1.30;;;1.30;;
20159;SDS011;50187;50.492;12.134;2023-08-06T08:04:38;1.20;;;1.10;;
20159;SDS011;50187;50.492;12.134;2023-08-06T08:07:05;1.10;;;1.10;;
20159;SDS011;50187;50.492;12.134;2023-08-06T08:09:32;1.33;;;1.33;;
20159;SDS011;50187;50.492;12.134;2023-08-06T08:11:58;1.20;;;1.20;;
20159;SDS011;50187;50.492;12.134;2023-08-06T08:14:27;1.13;;;1.10;;
20159;SDS011;50187;50.492;12.134;2023-08-06T08:16:55;1.40;;;1.40;;
20159;SDS011;50187;50.492;12.134;2023-08-06T08:19:21;1.07;;;1.07;;
20159;SDS011;50187;50.492;12.134;2023-08-06T08:21:48;1.20;;;1.20;;
20159;SDS011;50187;50.492;12.134;2023-08-06T08:24:15;1.40;;;1.30;;
20159;SDS011;50187;50.492;12.134;2023-08-06T08:26:42;0.90;;;0.90;;
20159;SDS011;50187;50.492;12.134;2023-08-06T08:29:08;0.87;;;0.87;;
20159;SDS011;50187;50.492;12.134;2023-08-06T08:31:35;1.10;;;1.10;;
20159;SDS011;50187;50.492;12.134;2023-08-06T08:34:05;1.20;;;1.20;;
20159;SDS011;50187;50.492;12.134;2023-08-06T08:36:32;1.10;;;1.10;;
20159;SDS011;50187;50.492;12.134;2023-08-06T08:38:59;1.00;;;1.00;;
20159;SDS011;50187;50.492;12.134;2023-08-06T08:41:27;1.20;;;1.20;;
20159;SDS011;50187;50.492;12.134;2023-08-06T08:43:56;1.30;;;1.20;;
20159;SDS011;50187;50.492;12.134;2023-08-06T08:46:26;1.07;;;1.07;;
20159;SDS011;50187;50.492;12.134;2023-08-06T08:48:59;1.17;;;1.17;;
20159;SDS011;50187;50.492;12.134;2023-08-06T08:51:27;1.27;;;1.27;;
20159;SDS011;50187;50.492;12.134;2023-08-06T08:53:54;1.00;;;1.00;;
20159;SDS011;50187;50.492;12.134;2023-08-06T08:56:25;0.90;;;0.90;;
20159;SDS011;50187;50.492;12.134;2023-08-06T08:58:51;1.30;;;1.20;;
20159;SDS011;50187;50.492;12.134;2023-08-06T09:01:20;1.07;;;1.07;;
20159;SDS011;50187;50.492;12.134;2023-08-06T09:03:48;1.40;;;1.30;;
20159;SDS011;50187;50.492;12.134;2023-08-06T09:06:16;0.90;;;0.90;;
20159;SDS011;50187;50.492;12.134;2023-08-06T09:08:51;1.13;;;1.13;;
20159;SDS011;50187;50.492;12.134;2023-08-06T09:11:26;1.30;;;1.30;;
20159;SDS011;50187;50.492;12.134;2023-08-06T09:13:53;1.10;;;1.10;;
20159;SDS011;50187;50.492;12.134;2023-08-06T09:16:20;1.17;;;1.17;;
20159;SDS011;50187;50.492;12.134;2023-08-06T09:18:47;1.10;;;1.00;;
20159;SDS011;50187;50.492;12.134;2023-08-06T09:21:14;1.03;;;1.03;;
20159;SDS011;50187;50.492;12.134;2023-08-06T09:23:44;1.17;;;1.17;;
20159;SDS011;50187;50.492;12.134;2023-08-06T09:26:13;1.20;;;1.10;;
20159;SDS011;50187;50.492;12.134;2023-08-06T09:28:42;1.33;;;1.33;;
20159;SDS011;50187;50.492;12.134;2023-08-06T09:31:10;1.27;;;1.17;;
20159;SDS011;50187;50.492;12.134;2023-08-06T09:33:37;1.47;;;1.37;;
20159;SDS011;50187;50.492;12.134;2023-08-06T09:36:07;1.20;;;1.20;;
20159;SDS011;50187;50.492;12.134;2023-08-06T09:38:38;1.43;;;1.33;;
20159;SDS011;50187;50.492;12.134;2023-08-06T09:41:08;1.10;;;1.10;;
20159;SDS011;50187;50.492;12.134;2023-08-06T09:43:41;0.90;;;0.90;;
20159;SDS011;50187;50.492;12.134;2023-08-06T09:46:12;1.00;;;1.00;;
20159;SDS011;50187;50.492;12.134;2023-08-06T09:48:40;1.10;;;1.10;;
20159;SDS011;50187;50.492;12.134;2023-08-06T09:51:08;1.10;;;1.10;;
20159;SDS011;50187;50.492;12.134;2023-08-06T09:53:35;1.37;;;1.27;;
20159;SDS011;50187;50.492;12.134;2023-08-06T09:56:03;1.10;;;1.10;;
20159;SDS011;50187;50.492;12.134;2023-08-06T09:58:30;1.43;;;1.33;;
20159;SDS011;50187;50.492;12.134;2023-08-06T10:00:59;1.10;;;1.00;;
20159;SDS011;50187;50.492;12.134;2023-08-06T10:03:27;1.10;;;1.10;;
20159;SDS011;50187;50.492;12.134;2023-08-06T10:05:55;1.13;;;1.13;;
20159;SDS011;50187;50.492;12.134;2023-08-06T10:08:23;1.10;;;1.10;;
20159;SDS011;50187;50.492;12.134;2023-08-06T10:10:49;1.00;;;1.00;;
20159;SDS011;50187;50.492;12.134;2023-08-06T10:13:20;1.17;;;1.17;;
20159;SDS011;50187;50.492;12.134;2023-08-06T10:15:48;1.20;;;1.20;;
20159;SDS011;50187;50.492;12.134;2023-08-06T10:18:17;1.13;;;1.13;;
20159;SDS011;50187;50.492;12.134;2023-08-06T10:20:47;1.07;;;1.07;;
20159;SDS011;50187;50.492;12.134;2023-08-06T10:23:14;1.13;;;1.13;;
20159;SDS011;50187;50.492;12.134;2023-08-06T10:25:41;1.30;;;1.30;;
20159;SDS011;50187;50.492;12.134;2023-08-06T10:28:10;1.30;;;1.20;;
20159;SDS011;50187;50.492;12.134;2023-08-06T10:30:43;1.27;;;1.27;;
20159;SDS011;50187;50.492;12.134;2023-08-06T10:33:11;1.40;;;1.37;;
20159;SDS011;50187;50.492;12.134;2023-08-06T10:35:41;0.90;;;0.90;;
20159;SDS011;50187;50.492;12.134;2023-08-06T10:38:22;1.20;;;1.20;;
20159;SDS011;50187;50.492;12.134;2023-08-06T10:43:26;1.07;;;1.07;;
20159;SDS011;50187;50.492;12.134;2023-08-06T10:45:58;1.00;;;1.00;;
20159;SDS011;50187;50.492;12.134;2023-08-06T10:51:03;1.00;;;1.00;;
20159;SDS011;50187;50.492;12.134;2023-08-06T10:53:34;1.23;;;1.20;;
20159;SDS011;50187;50.492;12.134;2023-08-06T10:56:01;1.30;;;1.30;;
20159;SDS011;50187;50.492;12.134;2023-08-06T10:58:32;1.23;;;1.17;;
20159;SDS011;50187;50.492;12.134;2023-08-06T11:00:59;1.20;;;1.20;;
20159;SDS011;50187;50.492;12.134;2023-08-06T11:03:27;1.23;;;1.03;;
20159;SDS011;50187;50.492;12.134;2023-08-06T11:05:54;1.13;;;1.10;;
20159;SDS011;50187;50.492;12.134;2023-08-06T11:08:25;1.10;;;1.10;;
20159;SDS011;50187;50.492;12.134;2023-08-06T11:10:56;1.27;;;1.20;;
20159;SDS011;50187;50.492;12.134;2023-08-06T11:13:34;1.20;;;1.20;;
20159;SDS011;50187;50.492;12.134;2023-08-06T11:16:01;1.20;;;1.20;;
20159;SDS011;50187;50.492;12.134;2023-08-06T11:18:28;1.27;;;1.17;;
20159;SDS011;50187;50.492;12.134;2023-08-06T11:20:54;1.30;;;1.30;;
20159;SDS011;50187;50.492;12.134;2023-08-06T11:23:21;1.00;;;1.00;;
20159;SDS011;50187;50.492;12.134;2023-08-06T11:25:48;1.30;;;1.20;;
20159;SDS011;50187;50.492;12.134;2023-08-06T11:28:14;1.33;;;1.30;;
20159;SDS011;50187;50.492;12.134;2023-08-06T11:30:41;1.00;;;1.00;;
20159;SDS011;50187;50.492;12.134;2023-08-06T11:33:07;1.20;;;1.20;;
20159;SDS011;50187;50.492;12.134;2023-08-06T11:35:36;1.20;;;1.10;;
20159;SDS011;50187;50.492;12.134;2023-08-06T11:38:04;1.40;;;1.30;;
20159;SDS011;50187;50.492;12.134;2023-08-06T11:40:31;1.50;;;1.40;;
20159;SDS011;50187;50.492;12.134;2023-08-06T11:42:58;1.00;;;1.00;;
20159;SDS011;50187;50.492;12.134;2023-08-06T11:45:25;1.00;;;1.00;;
20159;SDS011;50187;50.492;12.134;2023-08-06T11:47:52;0.93;;;0.93;;
20159;SDS011;50187;50.492;12.134;2023-08-06T11:50:25;1.40;;;1.30;;
20159;SDS011;50187;50.492;12.134;2023-08-06T11:52:52;0.97;;;0.97;;
20159;SDS011;50187;50.492;12.134;2023-08-06T11:55:22;1.03;;;1.03;;
20159;SDS011;50187;50.492;12.134;2023-08-06T11:57:50;1.00;;;1.00;;
20159;SDS011;50187;50.492;12.134;2023-08-06T12:00:17;1.03;;;1.03;;
20159;SDS011;50187;50.492;12.134;2023-08-06T12:02:46;0.90;;;0.90;;
20159;SDS011;50187;50.492;12.134;2023-08-06T12:05:14;1.30;;;1.20;;
20159;SDS011;50187;50.492;12.134;2023-08-06T12:07:45;1.10;;;1.10;;
20159;SDS011;50187;50.492;12.134;2023-08-06T12:10:15;1.27;;;1.27;;
20159;SDS011;50187;50.492;12.134;2023-08-06T12:12:42;1.27;;;1.20;;
20159;SDS011;50187;50.492;12.134;2023-08-06T12:15:09;1.10;;;1.10;;
20159;SDS011;50187;50.492;12.134;2023-08-06T12:17:37;1.13;;;1.13;;
20159;SDS011;50187;50.492;12.134;2023-08-06T12:20:04;1.30;;;1.20;;
20159;SDS011;50187;50.492;12.134;2023-08-06T12:22:32;1.13;;;1.13;;
20159;SDS011;50187;50.492;12.134;2023-08-06T12:25:09;1.20;;;1.17;;
20159;SDS011;50187;50.492;12.134;2023-08-06T12:27:39;1.20;;;1.20;;
20159;SDS011;50187;50.492;12.134;2023-08-06T12:30:08;1.00;;;1.00;;
20159;SDS011;50187;50.492;12.134;2023-08-06T12:32:36;1.00;;;1.00;;
20159;SDS011;50187;50.492;12.134;2023-08-06T12:35:04;1.23;;;1.13;;
20159;SDS011;50187;50.492;12.134;2023-08-06T12:37:33;2.00;;;1.07;;
20159;SDS011;50187;50.492;12.134;2023-08-06T12:40:00;1.07;;;1.07;;
20159;SDS011;50187;50.492;12.134;2023-08-06T12:42:47;1.37;;;1.27;;
20159;SDS011;50187;50.492;12.134;2023-08-06T12:45:15;1.00;;;1.00;;
20159;SDS011;50187;50.492;12.134;2023-08-06T12:47:42;1.10;;;1.07;;
20159;SDS011;50187;50.492;12.134;2023-08-06T12:50:09;1.30;;;1.27;;
20159;SDS011;50187;50.492;12.134;2023-08-06T12:52:35;0.90;;;0.90;;
20159;SDS011;50187;50.492;12.134;2023-08-06T12:55:02;1.30;;;1.13;;
20159;SDS011;50187;50.492;12.134;2023-08-06T12:57:29;1.03;;;1.03;;
20159;SDS011;50187;50.492;12.134;2023-08-06T13:00:16;1.07;;;1.07;;
20159;SDS011;50187;50.492;12.134;2023-08-06T13:02:42;1.00;;;1.00;;
20159;SDS011;50187;50.492;12.134;2023-08-06T13:05:09;1.07;;;0.97;;
20159;SDS011;50187;50.492;12.134;2023-08-06T13:07:36;1.00;;;1.00;;
20159;SDS011;50187;50.492;12.134;2023-08-06T13:10:02;1.50;;;1.40;;
20159;SDS011;50187;50.492;12.134;2023-08-06T13:12:30;1.07;;;1.07;;
20159;SDS011;50187;50.492;12.134;2023-08-06T13:14:57;0.80;;;0.80;;
20159;SDS011;50187;50.492;12.134;2023-08-06T13:17:25;1.10;;;1.10;;
20159;SDS011;50187;50.492;12.134;2023-08-06T13:19:53;1.00;;;0.97;;
20159;SDS011;50187;50.492;12.134;2023-08-06T13:22:20;1.03;;;1.03;;
20159;SDS011;50187;50.492;12.134;2023-08-06T13:24:46;1.10;;;1.10;;
20159;SDS011;50187;50.492;12.134;2023-08-06T13:27:13;0.90;;;0.90;;
20159;SDS011;50187;50.492;12.134;2023-08-06T13:29:39;0.90;;;0.90;;
20159;SDS011;50187;50.492;12.134;2023-08-06T13:32:06;0.90;;;0.90;;
20159;SDS011;50187;50.492;12.134;2023-08-06T13:34:33;1.10;;;1.10;;
20159;SDS011;50187;50.492;12.134;2023-08-06T13:36:59;1.90;;;1.00;;
20159;SDS011;50187;50.492;12.134;2023-08-06T13:39:26;0.93;;;0.93;;
20159;SDS011;50187;50.492;12.134;2023-08-06T13:41:52;0.90;;;0.90;;
20159;SDS011;50187;50.492;12.134;2023-08-06T13:44:19;1.17;;;1.10;;
20159;SDS011;50187;50.492;12.134;2023-08-06T13:46:45;1.10;;;1.10;;
20159;SDS011;50187;50.492;12.134;2023-08-06T13:49:12;0.90;;;0.90;;
20159;SDS011;50187;50.492;12.134;2023-08-06T13:51:39;1.30;;;1.20;;
20159;SDS011;50187;50.492;12.134;2023-08-06T13:54:06;1.10;;;1.10;;
20159;SDS011;50187;50.492;12.134;2023-08-06T13:56:33;1.00;;;1.00;;
20159;SDS011;50187;50.492;12.134;2023-08-06T13:59:00;0.97;;;0.97;;
20159;SDS011;50187;50.492;12.134;2023-08-06T14:01:27;0.90;;;0.90;;
20159;SDS011;50187;50.492;12.134;2023-08-06T14:04:14;0.93;;;0.93;;
20159;SDS011;50187;50.492;12.134;2023-08-06T14:06:40;0.90;;;0.90;;
20159;SDS011;50187;50.492;12.134;2023-08-06T14:09:07;0.97;;;0.97;;
20159;SDS011;50187;50.492;12.134;2023-08-06T14:11:34;1.10;;;1.10;;
20159;SDS011;50187;50.492;12.134;2023-08-06T14:14:00;1.50;;;1.40;;
20159;SDS011;50187;50.492;12.134;2023-08-06T14:16:29;0.80;;;0.80;;
20159;SDS011;50187;50.492;12.134;2023-08-06T14:18:56;1.00;;;1.00;;
20159;SDS011;50187;50.492;12.134;2023-08-06T14:21:22;0.77;;;0.77;;
20159;SDS011;50187;50.492;12.134;2023-08-06T14:23:49;1.10;;;1.10;;
20159;SDS011;50187;50.492;12.134;2023-08-06T14:26:16;1.00;;;1.00;;
20159;SDS011;50187;50.492;12.134;2023-08-06T14:28:43;1.20;;;1.10;;
20159;SDS011;50187;50.492;12.134;2023-08-06T14:31:10;0.90;;;0.90;;
20159;SDS011;50187;50.492;12.134;2023-08-06T14:33:38;1.10;;;1.00;;
20159;SDS011;50187;50.492;12.134;2023-08-06T14:36:04;0.93;;;0.93;;
20159;SDS011;50187;50.492;12.134;2023-08-06T14:38:31;0.90;;;0.90;;
20159;SDS011;50187;50.492;12.134;2023-08-06T14:41:03;0.80;;;0.80;;
20159;SDS011;50187;50.492;12.134;2023-08-06T14:43:30;0.83;;;0.83;;
20159;SDS011;50187;50.492;12.134;2023-08-06T14:45:56;0.90;;;0.90;;